createdAt,value
2023-03-01T00:01:22.299Z,102009.81
2023-03-01T00:03:51.232Z,102002.84
2023-03-01T00:06:19.955Z,101995.87
2023-03-01T00:08:48.150Z,101990.63
2023-03-01T00:11:20.031Z,101995.84
2023-03-01T00:13:50.144Z,101994.09
2023-03-01T00:16:23.637Z,101991.47
2023-03-01T00:18:55.449Z,101994.09
2023-03-01T00:21:23.966Z,101995.00
2023-03-01T00:23:52.456Z,101988.91
2023-03-01T00:26:24.127Z,101983.63
2023-03-01T00:28:53.206Z,101969.69
2023-03-01T00:31:23.577Z,101962.72
2023-03-01T00:33:54.943Z,101959.25
2023-03-01T00:36:23.187Z,101952.25
2023-03-01T00:38:51.279Z,101965.34
2023-03-01T00:41:23.545Z,101964.47
2023-03-01T00:43:52.364Z,101957.50
2023-03-01T00:46:22.614Z,101970.59
2023-03-01T00:48:51.064Z,101967.94
2023-03-01T00:51:21.778Z,101971.44
2023-03-01T00:53:52.806Z,101969.69
2023-03-01T00:56:23.039Z,101976.66
2023-03-01T00:58:51.829Z,101969.69
2023-03-01T01:01:23.043Z,101971.44
2023-03-01T01:03:54.447Z,101979.28
2023-03-01T01:06:24.158Z,101969.69
2023-03-01T01:08:53.580Z,101971.44
2023-03-01T01:11:23.516Z,101967.94
2023-03-01T01:13:52.081Z,101962.72
2023-03-01T01:16:21.679Z,101968.81
2023-03-01T01:18:51.406Z,101961.84
2023-03-01T01:21:22.334Z,101949.63
2023-03-01T01:23:51.325Z,101950.53
2023-03-01T01:26:21.489Z,101946.16
2023-03-01T01:28:52.608Z,101939.19
2023-03-01T01:31:24.632Z,101937.44
2023-03-01T01:33:53.325Z,101926.09
2023-03-01T01:36:22.353Z,101931.31
2023-03-01T01:38:50.742Z,101920.03
2023-03-01T01:41:19.028Z,101911.31
2023-03-01T01:43:49.879Z,101916.53
2023-03-01T01:46:26.163Z,101910.44
2023-03-01T01:48:59.331Z,101918.25
2023-03-01T01:51:39.083Z,101915.66
2023-03-01T01:54:14.262Z,101910.44
2023-03-01T01:56:46.412Z,101908.66
2023-03-01T01:59:16.805Z,101910.44
2023-03-01T02:01:46.394Z,101917.38
2023-03-01T02:04:14.858Z,101912.16
2023-03-01T02:06:51.374Z,101919.13
2023-03-01T02:09:22.451Z,101912.16
2023-03-01T02:11:52.545Z,101914.75
2023-03-01T02:14:20.723Z,101909.53
2023-03-01T02:16:50.681Z,101899.94
2023-03-01T02:19:32.944Z,101899.94
2023-03-01T02:22:08.948Z,101899.94
2023-03-01T02:24:50.405Z,101892.09
2023-03-01T02:27:25.734Z,101903.41
2023-03-01T02:29:56.813Z,101887.75
2023-03-01T02:32:26.263Z,101884.25
2023-03-01T02:34:55.831Z,101888.63
2023-03-01T02:37:26.658Z,101882.50
2023-03-01T02:40:00.320Z,101886.84
2023-03-01T02:42:32.811Z,101888.59
2023-03-01T02:45:02.427Z,101892.94
2023-03-01T02:47:30.798Z,101895.56
2023-03-01T02:49:58.794Z,101899.91
2023-03-01T02:52:47.318Z,101901.66
2023-03-01T02:55:18.491Z,101901.66
2023-03-01T02:57:51.599Z,101904.25
2023-03-01T03:00:26.036Z,101903.38
2023-03-01T03:02:57.888Z,101902.50
2023-03-01T03:05:28.876Z,101905.97
2023-03-01T03:07:59.376Z,101897.28
2023-03-01T03:10:30.601Z,101900.75
2023-03-01T03:13:00.681Z,101902.50
2023-03-01T03:15:31.095Z,101898.16
2023-03-01T03:18:00.714Z,101898.13
2023-03-01T03:20:30.770Z,101905.06
2023-03-01T03:23:00.243Z,101893.75
2023-03-01T03:25:30.065Z,101890.28
2023-03-01T03:27:59.241Z,101898.13
2023-03-01T03:30:29.408Z,101890.25
2023-03-01T03:33:00.467Z,101893.72
2023-03-01T03:35:31.316Z,101887.66
2023-03-01T03:38:03.982Z,101880.69
2023-03-01T03:40:34.336Z,101875.47
2023-03-01T03:43:03.148Z,101876.31
2023-03-01T03:45:34.157Z,101868.50
2023-03-01T03:48:05.866Z,101871.97
2023-03-01T03:50:34.604Z,101875.44
2023-03-01T03:53:05.282Z,101870.22
2023-03-01T03:55:34.896Z,101871.06
2023-03-01T03:58:08.657Z,101871.94
2023-03-01T04:00:37.955Z,101864.13
2023-03-01T04:03:09.211Z,101872.81
2023-03-01T04:05:37.808Z,101863.22
2023-03-01T04:08:08.847Z,101867.56
2023-03-01T04:10:43.877Z,101866.69
2023-03-01T04:13:14.216Z,101870.16
2023-03-01T04:15:44.026Z,101864.91
2023-03-01T04:18:15.623Z,101874.47
2023-03-01T04:20:46.011Z,101871.00
2023-03-01T04:23:16.944Z,101873.59
2023-03-01T05:34:31.470Z,101856.06
2023-03-01T05:37:00.187Z,101844.72
2023-03-01T05:39:30.911Z,101849.97
2023-03-01T05:42:01.796Z,101851.69
2023-03-01T05:44:31.211Z,101856.03
2023-03-01T05:46:59.502Z,101849.06
2023-03-01T05:49:29.004Z,101852.53
2023-03-01T05:51:57.106Z,101850.81
2023-03-01T05:54:25.568Z,101850.75
2023-03-01T05:56:53.656Z,101853.38
2023-03-01T05:59:21.755Z,101857.72
2023-03-01T06:01:51.062Z,101856.84
2023-03-01T06:04:19.362Z,101858.56
2023-03-01T06:06:48.746Z,101858.56
2023-03-01T06:09:16.777Z,101859.44
2023-03-01T06:11:45.086Z,101857.72
2023-03-01T06:14:15.607Z,101863.78
2023-03-01T06:16:43.745Z,101866.41
2023-03-01T06:19:15.033Z,101863.78
2023-03-01T06:21:43.102Z,101867.28
2023-03-01T06:24:12.834Z,101864.72
2023-03-01T06:26:40.920Z,101865.59
2023-03-01T06:29:09.698Z,101868.25
2023-03-01T06:31:38.124Z,101869.16
2023-03-01T06:34:06.304Z,101859.59
2023-03-01T06:36:34.351Z,101869.22
2023-03-01T06:39:02.729Z,101875.34
2023-03-01T06:41:32.057Z,101864.94
2023-03-01T06:44:00.322Z,101868.44
2023-03-01T06:46:28.858Z,101861.50
2023-03-01T06:48:57.065Z,101869.41
2023-03-01T06:51:25.135Z,101873.78
2023-03-01T06:53:53.402Z,101870.31
2023-03-01T06:56:21.504Z,101860.75
2023-03-01T06:58:50.770Z,101865.97
2023-03-01T07:01:19.078Z,101860.75
2023-03-01T07:03:47.258Z,101850.31
2023-03-01T07:06:15.546Z,101856.41
2023-03-01T07:08:44.045Z,101858.16
2023-03-01T07:11:12.348Z,101851.16
2023-03-01T07:13:40.410Z,101845.03
2023-03-01T07:16:10.569Z,101846.75
2023-03-01T07:18:38.596Z,101847.56
2023-03-01T07:21:07.893Z,101853.66
2023-03-01T07:23:36.422Z,101850.13
2023-03-01T07:26:04.609Z,101840.47
2023-03-01T07:28:36.885Z,101836.91
2023-03-01T07:31:05.687Z,101839.44
2023-03-01T07:33:35.177Z,101839.38
2023-03-01T07:36:05.172Z,101844.56
2023-03-01T07:38:33.758Z,101843.59
2023-03-01T07:41:03.281Z,101851.34
2023-03-01T07:43:31.763Z,101845.97
2023-03-01T07:46:01.345Z,101846.69
2023-03-01T07:48:29.572Z,101840.53
2023-03-01T07:51:01.712Z,101839.47
2023-03-01T07:53:31.853Z,101835.88
2023-03-01T07:56:04.227Z,101833.94
2023-03-01T07:58:32.434Z,101835.53
2023-03-01T08:01:03.628Z,101838.81
2023-03-01T08:03:31.964Z,101836.97
2023-03-01T08:06:03.111Z,101834.13
2023-03-01T08:08:32.159Z,101838.28
2023-03-01T08:11:01.012Z,101833.78
2023-03-01T08:13:29.126Z,101841.47
2023-03-01T08:16:03.399Z,101835.19
2023-03-01T08:18:31.641Z,101834.91
2023-03-01T08:21:05.252Z,101833.75
2023-03-01T08:23:33.522Z,101830.09
2023-03-01T08:26:08.049Z,101829.03
2023-03-01T08:28:36.835Z,101835.97
2023-03-01T08:31:05.536Z,101828.84
2023-03-01T08:33:33.521Z,101829.56
2023-03-01T08:36:07.923Z,101834.50
2023-03-01T08:38:36.324Z,101829.03
2023-03-01T08:41:05.875Z,101830.66
2023-03-01T08:43:33.868Z,101824.41
2023-03-01T08:46:02.172Z,101833.94
2023-03-01T08:48:30.993Z,101827.69
2023-03-01T08:50:59.109Z,101830.13
2023-03-01T08:53:28.844Z,101828.22
2023-03-01T08:55:56.851Z,101818.81
2023-03-01T08:58:25.074Z,101829.13
2023-03-01T09:00:53.413Z,101826.41
2023-03-01T09:03:21.537Z,101812.31
2023-03-01T09:05:51.197Z,101809.16
2023-03-01T09:08:20.195Z,101804.47
2023-03-01T09:10:49.952Z,101807.31
2023-03-01T09:13:18.017Z,101815.88
2023-03-01T09:15:46.327Z,101809.06
2023-03-01T09:18:14.329Z,101805.34
2023-03-01T09:20:42.810Z,101808.59
2023-03-01T09:23:13.247Z,101812.38
2023-03-01T09:25:41.342Z,101813.84
2023-03-01T09:28:24.149Z,101803.37
2023-03-01T09:31:00.242Z,101805.69
2023-03-01T09:33:29.016Z,101795.72
2023-03-01T09:36:01.406Z,101790.31
2023-03-01T09:38:29.867Z,101793.34
2023-03-01T09:40:59.071Z,101793.44
2023-03-01T09:43:36.265Z,101786.22
2023-03-01T09:46:08.266Z,101783.66
2023-03-01T09:48:43.838Z,101774.53
2023-03-01T09:51:19.814Z,101779.31
2023-03-01T09:53:48.062Z,101776.37
2023-03-01T09:56:22.618Z,101777.75
2023-03-01T09:58:57.762Z,101785.84
2023-03-01T10:01:35.742Z,101768.03
2023-03-01T10:04:28.259Z,101760.31
2023-03-01T10:07:06.549Z,101766.41
2023-03-01T10:09:36.754Z,101771.38
2023-03-01T10:12:11.064Z,101768.06
2023-03-01T10:14:48.898Z,101767.00
2023-03-01T10:17:26.672Z,101763.88
2023-03-01T10:19:55.645Z,101765.59
2023-03-01T10:22:27.040Z,101756.25
2023-03-01T10:24:57.495Z,101764.91
2023-03-01T10:27:27.578Z,101756.78
2023-03-01T10:30:17.157Z,101759.16
2023-03-01T10:32:46.417Z,101759.59
2023-03-01T10:35:20.221Z,101755.47
2023-03-01T10:37:59.843Z,101755.53
2023-03-01T10:40:28.359Z,101752.31
2023-03-01T10:43:00.468Z,101761.81
2023-03-01T10:45:38.840Z,101759.66
2023-03-01T10:48:13.399Z,101759.97
2023-03-01T10:50:42.899Z,101750.09
2023-03-01T10:53:27.252Z,101751.94
2023-03-01T10:56:01.690Z,101748.06
2023-03-01T10:58:31.084Z,101753.59
2023-03-01T11:01:02.954Z,101748.97
2023-03-01T11:03:33.205Z,101745.72
2023-03-01T11:06:05.927Z,101749.00
2023-03-01T11:08:40.277Z,101754.56
2023-03-01T11:11:24.581Z,101740.00
2023-03-01T11:14:01.597Z,101738.91
2023-03-01T11:16:35.226Z,101731.63
2023-03-01T11:19:17.805Z,101731.56
2023-03-01T11:21:55.117Z,101735.88
2023-03-01T11:24:32.277Z,101722.31
2023-03-01T11:27:04.637Z,101717.09
2023-03-01T11:29:47.767Z,101721.59
2023-03-01T11:32:18.650Z,101716.16
2023-03-01T11:34:51.212Z,101718.19
2023-03-01T11:37:30.500Z,101705.81
2023-03-01T11:40:05.959Z,101706.38
2023-03-01T11:42:48.692Z,101709.91
2023-03-01T11:45:16.953Z,101706.16
2023-03-01T11:48:01.620Z,101698.66
2023-03-01T11:50:36.629Z,101694.53
2023-03-01T11:53:22.622Z,101692.38
2023-03-01T11:56:11.780Z,101691.94
2023-03-01T11:58:58.805Z,101687.22
2023-03-01T12:01:39.025Z,101689.75
2023-03-01T12:04:38.641Z,101694.50
2023-03-01T12:07:15.178Z,101683.25
2023-03-01T12:09:57.754Z,101679.50
2023-03-01T12:12:37.340Z,101678.22
2023-03-01T12:15:25.946Z,101678.06
2023-03-01T12:18:10.504Z,101672.09
2023-03-01T12:20:47.528Z,101679.47
2023-03-01T12:23:35.756Z,101658.47
2023-03-01T12:26:14.094Z,101655.06
2023-03-01T12:28:53.738Z,101649.94
2023-03-01T12:31:39.238Z,101644.09
2023-03-01T12:34:27.263Z,101636.66
2023-03-01T12:37:14.255Z,101637.06
2023-03-01T12:39:53.351Z,101637.13
2023-03-01T12:42:32.018Z,101633.09
2023-03-01T12:45:18.890Z,101626.22
2023-03-01T12:48:04.927Z,101624.34
2023-03-01T12:50:42.357Z,101618.81
2023-03-01T12:53:23.945Z,101616.66
2023-03-01T12:55:53.983Z,101617.75
2023-03-01T12:58:34.236Z,101613.50
2023-03-01T13:01:24.536Z,101616.59
2023-03-01T13:04:23.529Z,101615.66
2023-03-01T13:07:01.949Z,101614.44
2023-03-01T13:09:40.341Z,101616.75
2023-03-01T13:12:41.867Z,101615.94
2023-03-01T13:15:27.861Z,101605.94
2023-03-01T13:17:58.148Z,101592.19
2023-03-01T13:20:31.678Z,101598.72
2023-03-01T13:23:11.356Z,101598.09
2023-03-01T13:26:09.793Z,101602.87
2023-03-01T13:28:54.194Z,101593.59
2023-03-01T13:31:59.909Z,101600.19
2023-03-01T13:34:46.477Z,101601.72
2023-03-01T13:37:23.229Z,101601.22
2023-03-01T13:39:52.347Z,101592.78
2023-03-01T13:42:38.266Z,101586.94
2023-03-01T13:45:20.966Z,101588.22
2023-03-01T13:47:53.613Z,101593.06
2023-03-01T13:50:25.597Z,101585.75
2023-03-01T13:53:00.123Z,101577.25
2023-03-01T13:55:37.920Z,101571.91
2023-03-01T13:58:17.852Z,101570.28
2023-03-01T14:00:47.374Z,101561.47
2023-03-01T14:03:18.418Z,101560.22
2023-03-01T14:06:13.185Z,101562.94
2023-03-01T14:08:43.321Z,101563.28
2023-03-01T14:12:03.269Z,101561.00
2023-03-01T14:14:43.863Z,101552.47
2023-03-01T14:17:34.131Z,101549.72
2023-03-01T14:20:10.128Z,101556.75
2023-03-01T14:22:38.879Z,101547.16
2023-03-01T14:25:18.967Z,101542.47
2023-03-01T14:27:52.755Z,101535.78
2023-03-01T14:30:23.923Z,101539.38
2023-03-01T14:32:58.240Z,101547.28
2023-03-01T14:35:28.857Z,101539.38
2023-03-01T14:37:56.987Z,101544.63
2023-03-01T14:40:28.854Z,101538.69
2023-03-01T14:43:00.299Z,101535.53
2023-03-01T14:45:31.566Z,101531.25
2023-03-01T14:48:04.142Z,101531.09
2023-03-01T14:50:34.181Z,101529.00
2023-03-01T14:53:04.750Z,101531.50
2023-03-01T14:55:35.895Z,101530.03
2023-03-01T14:58:06.504Z,101523.97
2023-03-01T15:00:36.343Z,101518.13
2023-03-01T15:03:14.346Z,101517.81
2023-03-01T15:05:44.983Z,101513.44
2023-03-01T15:08:19.903Z,101515.66
2023-03-01T15:10:59.593Z,101505.34
2023-03-01T15:13:32.158Z,101505.66
2023-03-01T15:16:08.542Z,101509.81
2023-03-01T15:18:39.579Z,101508.91
2023-03-01T15:21:10.584Z,101499.78
2023-03-01T15:23:41.895Z,101503.84
2023-03-01T15:26:24.931Z,101496.25
2023-03-01T15:28:59.105Z,101485.97
2023-03-01T15:31:29.438Z,101494.72
2023-03-01T15:34:23.080Z,101494.28
2023-03-01T15:36:52.449Z,101491.13
2023-03-01T15:39:39.161Z,101493.19
2023-03-01T15:42:13.950Z,101493.06
2023-03-01T15:44:45.998Z,101494.56
2023-03-01T15:47:27.233Z,101494.28
2023-03-01T15:49:57.723Z,101493.44
2023-03-01T15:52:30.181Z,101492.34
2023-03-01T15:55:01.096Z,101492.84
2023-03-01T15:57:29.547Z,101494.56
2023-03-01T15:59:57.968Z,101508.69
2023-03-01T16:02:26.758Z,101506.25
2023-03-01T16:04:57.423Z,101500.50
2023-03-01T16:07:28.957Z,101500.91
2023-03-01T16:09:57.305Z,101498.59
2023-03-01T16:12:26.138Z,101504.13
2023-03-01T16:14:54.891Z,101499.38
2023-03-01T16:17:23.210Z,101503.16
2023-03-01T16:19:51.285Z,101503.00
2023-03-01T16:22:22.034Z,101498.47
2023-03-01T16:24:51.644Z,101496.16
2023-03-01T16:27:21.465Z,101492.19
2023-03-01T16:29:49.554Z,101502.13
2023-03-01T16:32:18.000Z,101500.06
2023-03-01T16:34:48.722Z,101505.97
2023-03-01T16:37:17.251Z,101512.59
2023-03-01T16:39:45.518Z,101512.19
2023-03-01T16:42:15.398Z,101514.38
2023-03-01T16:44:43.497Z,101522.19
2023-03-01T16:47:11.866Z,101513.84
2023-03-01T16:49:39.849Z,101524.91
2023-03-01T16:52:07.940Z,101525.41
2023-03-01T16:54:36.186Z,101520.66
2023-03-01T16:57:04.261Z,101523.84
2023-03-01T16:59:33.614Z,101516.28
2023-03-01T17:02:01.854Z,101515.75
2023-03-01T17:04:29.927Z,101505.44
2023-03-01T17:06:58.120Z,101507.50
2023-03-01T17:09:26.587Z,101516.00
2023-03-01T17:11:55.294Z,101513.62
2023-03-01T17:14:23.460Z,101532.44
2023-03-01T17:16:53.982Z,101526.50
2023-03-01T17:19:22.099Z,101529.41
2023-03-01T17:21:50.487Z,101535.00
2023-03-01T17:24:18.766Z,101542.34
2023-03-01T17:26:46.734Z,101539.81
2023-03-01T17:29:14.742Z,101546.06
2023-03-01T17:31:43.157Z,101546.31
2023-03-01T17:34:12.600Z,101540.22
2023-03-01T17:36:44.172Z,101546.63
2023-03-01T17:39:12.619Z,101540.72
2023-03-01T17:41:40.584Z,101540.28
2023-03-01T17:44:08.576Z,101541.50
2023-03-01T17:46:36.952Z,101536.69
2023-03-01T17:49:05.271Z,101537.00
2023-03-01T17:51:35.636Z,101531.94
2023-03-01T17:54:05.509Z,101527.06
2023-03-01T17:56:34.195Z,101531.81
2023-03-01T17:59:02.731Z,101528.44
2023-03-01T18:01:31.522Z,101537.22
2023-03-01T18:04:00.051Z,101535.47
2023-03-01T18:06:29.928Z,101535.44
2023-03-01T18:09:01.461Z,101544.22
2023-03-01T18:11:29.879Z,101544.19
2023-03-01T18:13:57.963Z,101545.03
2023-03-01T18:16:26.495Z,101552.84
2023-03-01T18:18:57.456Z,101541.50
2023-03-01T18:21:26.214Z,101548.59
2023-03-01T18:23:59.668Z,101549.53
2023-03-01T18:26:33.403Z,101546.91
2023-03-01T18:29:04.553Z,101550.44
2023-03-01T18:31:33.629Z,101549.53
2023-03-01T18:34:02.268Z,101544.31
2023-03-01T18:36:32.114Z,101549.66
2023-03-01T18:39:00.377Z,101557.59
2023-03-01T18:41:30.299Z,101555.94
2023-03-01T18:44:00.428Z,101562.28
2023-03-01T18:46:28.703Z,101551.87
2023-03-01T18:48:56.976Z,101549.25
2023-03-01T18:51:27.138Z,101547.56
2023-03-01T18:53:55.868Z,101538.91
2023-03-01T18:56:23.833Z,101539.13
2023-03-01T18:58:51.922Z,101541.81
2023-03-01T19:01:24.419Z,101542.75
2023-03-01T19:03:56.254Z,101538.53
2023-03-01T19:06:25.973Z,101542.88
2023-03-01T19:08:54.472Z,101535.16
2023-03-01T19:11:22.544Z,101530.81
2023-03-01T19:13:51.858Z,101529.09
2023-03-01T19:16:23.850Z,101522.22
2023-03-01T19:18:54.078Z,101520.41
2023-03-01T19:21:25.164Z,101523.03
2023-03-01T19:23:54.635Z,101528.25
2023-03-01T19:26:24.601Z,101536.16
2023-03-01T19:28:53.915Z,101540.50
2023-03-01T19:31:26.423Z,101540.47
2023-03-01T19:34:05.242Z,101539.66
2023-03-01T19:36:37.298Z,101544.88
2023-03-01T19:39:07.629Z,101539.72
2023-03-01T19:41:36.032Z,101545.06
2023-03-01T19:44:05.859Z,101539.00
2023-03-01T19:46:35.947Z,101541.59
2023-03-01T19:49:05.366Z,101534.63
2023-03-01T19:51:36.341Z,101535.53
2023-03-01T19:54:06.522Z,101532.13
2023-03-01T19:56:35.656Z,101531.31
2023-03-01T19:59:05.017Z,101531.34
2023-03-01T20:01:37.537Z,101526.16
2023-03-01T20:04:06.559Z,101522.78
2023-03-01T20:06:34.972Z,101517.78
2023-03-01T20:09:15.316Z,101519.66
2023-03-01T20:11:49.153Z,101517.12
2023-03-01T20:14:17.512Z,101519.69
2023-03-01T20:16:47.075Z,101523.19
2023-03-01T20:19:15.618Z,101525.94
2023-03-01T20:21:43.606Z,101517.91
2023-03-01T20:24:11.706Z,101531.94
2023-03-01T20:26:41.031Z,101529.28
2023-03-01T20:29:10.314Z,101529.31
2023-03-01T20:31:39.903Z,101534.66
2023-03-01T20:34:09.708Z,101537.34
2023-03-01T20:36:39.305Z,101539.16
2023-03-01T20:39:07.904Z,101540.03
2023-03-01T20:41:36.332Z,101547.06
2023-03-01T20:44:06.548Z,101540.06
2023-03-01T20:46:35.934Z,101533.97
2023-03-01T20:49:05.866Z,101530.47
2023-03-01T20:51:35.259Z,101531.38
2023-03-01T20:54:03.335Z,101532.31
2023-03-01T20:56:32.273Z,101525.37
2023-03-01T20:59:04.387Z,101529.78
2023-03-01T21:01:32.953Z,101523.66
2023-03-01T21:04:01.144Z,101528.91
2023-03-01T21:06:29.427Z,101528.91
2023-03-01T21:08:59.114Z,101528.00
2023-03-01T21:11:27.201Z,101526.28
2023-03-01T21:13:55.725Z,101535.88
2023-03-01T21:16:24.993Z,101528.91
2023-03-01T21:18:53.422Z,101532.44
2023-03-01T21:21:22.728Z,101520.28
2023-03-01T21:23:51.027Z,101520.22
2023-03-01T21:26:22.370Z,101515.78
2023-03-01T21:28:54.342Z,101515.78
2023-03-01T21:31:24.995Z,101514.00
2023-03-01T21:33:54.603Z,101507.03
2023-03-01T21:36:24.216Z,101503.56
2023-03-01T21:38:53.277Z,101505.34
2023-03-01T21:41:24.971Z,101498.41
2023-03-01T21:43:57.931Z,101494.00
2023-03-01T21:46:31.622Z,101494.94
2023-03-01T21:49:00.537Z,101495.88
2023-03-01T21:51:30.553Z,101495.06
2023-03-01T21:54:00.985Z,101488.03
2023-03-01T21:56:34.481Z,101485.47
2023-03-01T21:59:03.518Z,101485.53
2023-03-01T22:01:32.134Z,101483.84
2023-03-01T22:04:03.310Z,101478.72
2023-03-01T22:06:34.245Z,101480.50
2023-03-01T22:09:06.004Z,101475.38
2023-03-01T22:11:37.410Z,101478.00
2023-03-01T22:14:05.779Z,101479.97
2023-03-01T22:16:36.419Z,101466.88
2023-03-01T22:19:05.006Z,101470.44
2023-03-01T22:21:37.027Z,101467.84
2023-03-01T22:24:05.714Z,101469.62
2023-03-01T22:26:37.873Z,101469.62
2023-03-01T22:29:08.838Z,101465.16
2023-03-01T22:31:37.457Z,101464.28
2023-03-01T22:34:06.352Z,101464.31
2023-03-01T22:36:35.228Z,101466.09
2023-03-01T22:39:04.403Z,101458.28
2023-03-01T22:41:36.765Z,101459.16
2023-03-01T22:44:05.718Z,101462.69
2023-03-01T22:46:34.360Z,101460.94
2023-03-01T22:49:02.698Z,101463.59
2023-03-01T22:51:33.943Z,101464.47
2023-03-01T22:54:02.373Z,101459.28
2023-03-01T22:56:33.132Z,101453.22
2023-03-01T22:59:04.829Z,101457.56
2023-03-01T23:01:33.080Z,101460.28
2023-03-01T23:04:22.161Z,101451.63
2023-03-01T23:06:54.731Z,101458.59
2023-03-01T23:09:25.470Z,101464.72
2023-03-01T23:11:55.483Z,101460.37
2023-03-01T23:14:25.516Z,101460.56
2023-03-01T23:16:54.385Z,101460.47
2023-03-01T23:19:23.051Z,101463.13
2023-03-01T23:21:51.175Z,101457.94
2023-03-01T23:24:21.494Z,101459.69
2023-03-01T23:26:53.345Z,101458.84
2023-03-01T23:29:22.303Z,101463.28
2023-03-01T23:31:51.857Z,101463.25
2023-03-01T23:34:20.070Z,101458.06
2023-03-01T23:36:48.511Z,101462.44
2023-03-01T23:39:16.530Z,101464.22
2023-03-01T23:41:44.772Z,101471.16
2023-03-01T23:44:16.768Z,101464.22
2023-03-01T23:46:45.932Z,101465.13
2023-03-01T23:49:17.496Z,101467.72
2023-03-01T23:51:47.685Z,101469.50
2023-03-01T23:54:18.830Z,101482.62
2023-03-01T23:56:47.936Z,101475.66
2023-03-01T23:59:18.052Z,101476.53
